Time;durP1;ratioP1;P1;durP2;ratioP2;P2;SDS_P1;SDS_P2;PMS_P1;PMS_P2;Temp;Humidity;BMP_temperature;BMP_pressure;BME280_temperature;BME280_humidity;BME280_pressure;Samples;Min_cycle;Max_cycle;Signal;HPM_P1;HPM_P2
2022/04/15 00:00:44;;;;;;;92.07;45.10;;;2.20;99.90;;;;;;5096437;28;20442;-95
2022/04/15 00:03:11;;;;;;;98.10;47.45;;;2.20;99.90;;;;;;5095762;28;20047;-94
2022/04/15 00:05:37;;;;;;;100.75;51.55;;;2.20;99.90;;;;;;5095775;28;20053;-96
2022/04/15 00:08:04;;;;;;;100.40;47.15;;;2.20;99.90;;;;;;5095622;28;20027;-95
2022/04/15 00:10:30;;;;;;;88.35;42.70;;;2.10;99.90;;;;;;5096005;28;20027;-95
2022/04/15 00:12:57;;;;;;;103.28;51.55;;;2.10;99.90;;;;;;5096128;28;20031;-95
2022/04/15 00:15:24;;;;;;;94.57;46.25;;;2.10;99.90;;;;;;5095605;28;20069;-94
2022/04/15 00:17:51;;;;;;;80.45;40.30;;;2.10;99.90;;;;;;5095653;28;20402;-95
2022/04/15 00:20:17;;;;;;;81.40;42.78;;;2.00;99.90;;;;;;5095442;28;20047;-95
2022/04/15 00:22:43;;;;;;;81.75;41.75;;;2.00;99.90;;;;;;5095435;28;20089;-95
2022/04/15 00:25:12;;;;;;;75.00;37.47;;;2.00;99.90;;;;;;5095507;28;20024;-95
2022/04/15 00:27:39;;;;;;;76.38;37.40;;;2.00;99.90;;;;;;5095213;28;20513;-95
2022/04/15 00:30:09;;;;;;;79.78;38.40;;;2.00;99.90;;;;;;5095168;28;20020;-95
2022/04/15 00:32:35;;;;;;;90.78;40.75;;;2.00;99.90;;;;;;5095390;28;20032;-95
2022/04/15 00:35:02;;;;;;;105.97;44.47;;;1.90;99.90;;;;;;5095340;28;20028;-95
2022/04/15 00:37:28;;;;;;;113.38;49.33;;;1.90;99.90;;;;;;5095919;28;20024;-94
2022/04/15 00:39:53;;;;;;;120.57;51.53;;;1.90;99.90;;;;;;5095179;28;20128;-95
2022/04/15 00:42:23;;;;;;;136.95;56.45;;;1.90;99.90;;;;;;5095300;28;20047;-95
2022/04/15 00:44:53;;;;;;;146.90;61.58;;;1.90;99.90;;;;;;5095138;28;20447;-95
2022/04/15 00:47:42;;;;;;;139.45;59.72;;;1.90;99.90;;;;;;5095126;28;20028;-95
2022/04/15 00:50:08;;;;;;;123.95;52.22;;;1.90;99.90;;;;;;5095097;28;20024;-95
2022/04/15 00:52:40;;;;;;;112.47;51.70;;;1.90;99.90;;;;;;5094959;28;20095;-95
2022/04/15 00:55:06;;;;;;;109.07;51.53;;;1.90;99.90;;;;;;5095090;28;20024;-95
2022/04/15 00:57:36;;;;;;;109.40;50.35;;;1.90;99.90;;;;;;5094990;28;20027;-94
2022/04/15 01:00:05;;;;;;;115.13;54.28;;;1.80;99.90;;;;;;5095011;28;20487;-95
2022/04/15 01:02:33;;;;;;;99.68;48.83;;;1.80;99.90;;;;;;5094838;28;20150;-95
2022/04/15 01:05:00;;;;;;;107.72;51.25;;;1.80;99.90;;;;;;5094894;28;20479;-95
2022/04/15 01:07:29;;;;;;;97.57;47.80;;;1.80;99.90;;;;;;5094584;28;20490;-95
2022/04/15 01:09:54;;;;;;;96.72;46.40;;;1.80;99.90;;;;;;5094712;28;20024;-95
2022/04/15 01:12:29;;;;;;;87.35;42.15;;;1.80;99.90;;;;;;5094621;28;20138;-95
2022/04/15 01:15:00;;;;;;;80.43;39.25;;;1.90;99.90;;;;;;5094562;28;20016;-95
2022/04/15 01:17:28;;;;;;;71.10;34.53;;;1.80;99.90;;;;;;5094699;28;20114;-96
2022/04/15 01:19:55;;;;;;;69.95;33.75;;;1.80;99.90;;;;;;5094715;28;20027;-95
2022/04/15 01:22:24;;;;;;;67.40;31.08;;;1.80;99.90;;;;;;5094400;28;20032;-95
2022/04/15 01:24:50;;;;;;;63.72;32.13;;;1.80;99.90;;;;;;5094471;28;20120;-95
2022/04/15 01:27:26;;;;;;;69.43;33.05;;;1.80;99.90;;;;;;5094442;28;20044;-95
2022/04/15 01:29:51;;;;;;;65.70;31.50;;;1.70;99.90;;;;;;5094933;28;20020;-95
2022/04/15 01:32:18;;;;;;;64.32;32.65;;;1.70;99.90;;;;;;5094134;28;20038;-95
2022/04/15 01:34:43;;;;;;;67.07;31.20;;;1.70;99.90;;;;;;5094215;28;20482;-95
2022/04/15 01:37:10;;;;;;;63.88;29.25;;;1.70;99.90;;;;;;5093656;28;20119;-95
2022/04/15 01:39:38;;;;;;;61.58;29.27;;;1.70;99.90;;;;;;5094302;28;20024;-95
2022/04/15 01:42:04;;;;;;;60.72;29.08;;;1.70;99.90;;;;;;5094313;28;20028;-95
2022/04/15 01:44:30;;;;;;;59.28;28.65;;;1.70;99.90;;;;;;5094021;28;20027;-95
2022/04/15 01:46:55;;;;;;;57.83;27.80;;;1.60;99.90;;;;;;5093940;28;20020;-95
2022/04/15 01:49:21;;;;;;;57.00;26.83;;;1.60;99.90;;;;;;5093997;28;20059;-96
2022/04/15 01:51:47;;;;;;;55.22;27.25;;;1.60;99.90;;;;;;5093956;28;20043;-95
2022/04/15 01:54:12;;;;;;;60.92;28.52;;;1.60;99.90;;;;;;5094652;28;20447;-96
2022/04/15 01:56:39;;;;;;;67.70;31.73;;;1.50;99.90;;;;;;5093771;28;20084;-95
2022/04/15 01:59:09;;;;;;;64.65;30.63;;;1.50;99.90;;;;;;5093816;28;20133;-95
2022/04/15 02:01:35;;;;;;;74.18;34.80;;;1.40;99.90;;;;;;5093927;28;20032;-95
2022/04/15 02:04:01;;;;;;;66.07;32.97;;;1.40;99.90;;;;;;5094021;28;20028;-95
2022/04/15 02:06:26;;;;;;;75.30;36.05;;;1.40;99.90;;;;;;5093593;28;20035;-95
2022/04/15 02:08:52;;;;;;;77.15;36.40;;;1.40;99.90;;;;;;5093739;28;20024;-95
2022/04/15 02:11:18;;;;;;;76.18;36.42;;;1.40;99.90;;;;;;5093483;28;20136;-95
2022/04/15 02:13:44;;;;;;;69.25;34.83;;;1.40;99.90;;;;;;5094184;28;20455;-95
2022/04/15 02:16:10;;;;;;;68.30;32.63;;;1.40;99.90;;;;;;5093467;28;20028;-95
2022/04/15 02:18:36;;;;;;;70.95;34.72;;;1.40;99.90;;;;;;5093600;28;20058;-95
2022/04/15 02:21:02;;;;;;;71.13;34.08;;;1.40;99.90;;;;;;5093547;28;20047;-94
2022/04/15 02:23:28;;;;;;;70.53;33.58;;;1.40;99.90;;;;;;5093658;28;20028;-95
2022/04/15 02:25:53;;;;;;;70.10;33.17;;;1.40;99.90;;;;;;5093356;28;20058;-95
2022/04/15 02:28:19;;;;;;;64.15;33.03;;;1.40;99.90;;;;;;5093534;28;20031;-95
2022/04/15 02:30:47;;;;;;;66.82;31.77;;;1.40;99.90;;;;;;5093343;28;20035;-95
2022/04/15 02:33:16;;;;;;;64.72;32.30;;;1.50;99.90;;;;;;5093304;28;20028;-95
2022/04/15 02:35:42;;;;;;;69.55;31.60;;;1.40;99.90;;;;;;5093095;28;20028;-95
2022/04/15 02:38:08;;;;;;;62.95;30.83;;;1.40;99.90;;;;;;5077230;28;20032;-95
2022/04/15 02:40:34;;;;;;;63.05;32.03;;;1.50;99.90;;;;;;5093351;28;20107;-95
2022/04/15 02:43:04;;;;;;;64.57;30.60;;;1.40;99.90;;;;;;5093373;28;20057;-95
2022/04/15 02:45:31;;;;;;;65.93;31.48;;;1.40;99.90;;;;;;5093382;28;20028;-95
2022/04/15 02:47:57;;;;;;;68.57;32.13;;;1.50;99.90;;;;;;5094619;28;20028;-95
2022/04/15 02:50:26;;;;;;;67.35;32.13;;;1.40;99.90;;;;;;5097276;28;20046;-94
2022/04/15 02:52:52;;;;;;;62.67;29.05;;;1.40;99.90;;;;;;5096720;28;20032;-94
2022/04/15 02:55:17;;;;;;;63.65;30.27;;;1.40;99.90;;;;;;5080394;28;20134;-94
2022/04/15 02:57:44;;;;;;;68.75;30.33;;;1.30;99.90;;;;;;5097078;28;20030;-94
2022/04/15 03:00:12;;;;;;;62.10;31.20;;;1.30;99.90;;;;;;5080367;28;20032;-94
2022/04/15 03:02:38;;;;;;;55.42;27.38;;;1.40;99.90;;;;;;5080455;28;20040;-95
2022/04/15 03:05:09;;;;;;;55.28;27.15;;;1.30;99.90;;;;;;5096840;28;20112;-94
2022/04/15 03:07:37;;;;;;;59.28;27.38;;;1.30;99.90;;;;;;5097050;28;20051;-95
2022/04/15 03:10:05;;;;;;;52.22;26.38;;;1.30;99.90;;;;;;5097019;28;20020;-94
2022/04/15 03:12:37;;;;;;;51.22;24.30;;;1.30;99.90;;;;;;5098536;28;20028;-94
2022/04/15 03:15:04;;;;;;;51.15;25.50;;;1.30;99.90;;;;;;5097670;28;20074;-95
2022/04/15 03:17:33;;;;;;;51.08;25.25;;;1.30;99.90;;;;;;5096177;28;20031;-94
2022/04/15 03:20:02;;;;;;;46.53;23.90;;;1.40;99.90;;;;;;5096622;28;20073;-94
2022/04/15 03:22:48;;;;;;;45.85;24.73;;;1.30;99.90;;;;;;5096928;28;20035;-94
2022/04/15 03:25:17;;;;;;;44.42;23.73;;;1.40;99.90;;;;;;5096509;28;20028;-94
2022/04/15 03:27:46;;;;;;;40.88;22.85;;;1.40;99.90;;;;;;5079456;28;20482;-94
2022/04/15 03:30:14;;;;;;;41.60;24.25;;;1.40;99.90;;;;;;5079858;28;20032;-94
2022/04/15 03:32:51;;;;;;;45.30;24.00;;;1.40;99.90;;;;;;5097020;28;20093;-94
2022/04/15 03:35:22;;;;;;;47.97;23.75;;;1.50;99.90;;;;;;5096563;28;20108;-94
2022/04/15 03:37:48;;;;;;;;;;;1.60;99.90;;;;;;5096911;28;20382;-94
2022/04/15 03:40:15;;;;;;;41.97;21.13;;;1.50;99.90;;;;;;5096236;28;19904;-94
2022/04/15 03:42:51;;;;;;;41.08;21.15;;;1.60;99.90;;;;;;5096311;28;20123;-94
2022/04/15 03:45:19;;;;;;;46.65;24.98;;;1.60;99.90;;;;;;5096547;28;20020;-94
2022/04/15 03:47:46;;;;;;;37.20;22.00;;;1.70;99.90;;;;;;5096236;28;20032;-94
2022/04/15 03:50:14;;;;;;;44.67;24.45;;;1.70;99.90;;;;;;5096525;28;20024;-94
2022/04/15 03:52:46;;;;;;;48.10;27.15;;;1.80;99.90;;;;;;5097346;28;20031;-94
2022/04/15 03:55:15;;;;;;;56.22;32.60;;;1.90;99.90;;;;;;5096308;28;20052;-93
2022/04/15 03:57:43;;;;;;;55.22;33.45;;;1.90;99.90;;;;;;5096801;28;20031;-93
2022/04/15 04:00:13;;;;;;;61.15;35.35;;;2.00;99.90;;;;;;5095512;28;20028;-93
2022/04/15 04:02:44;;;;;;;57.13;33.95;;;2.10;99.90;;;;;;5096309;28;20032;-94
2022/04/15 04:05:10;;;;;;;55.67;34.65;;;2.10;99.90;;;;;;5096112;28;20449;-93
2022/04/15 04:07:37;;;;;;;53.33;31.17;;;2.20;99.90;;;;;;5095385;28;20486;-90
2022/04/15 04:10:03;;;;;;;48.45;29.15;;;2.30;99.90;;;;;;5098691;28;20034;-94
2022/04/15 04:12:33;;;;;;;50.13;27.25;;;2.40;99.90;;;;;;5095410;28;20443;-93
2022/04/15 04:15:05;;;;;;;42.35;24.45;;;2.50;99.90;;;;;;5078801;28;20119;-93
2022/04/15 04:17:32;;;;;;;54.60;26.25;;;2.60;99.90;;;;;;5096686;28;20047;-94
2022/04/15 04:20:01;;;;;;;54.28;29.08;;;2.70;99.90;;;;;;5096829;28;20036;-93
2022/04/15 04:22:41;;;;;;;55.03;28.08;;;2.80;99.90;;;;;;5094893;28;20027;-93
2022/04/15 04:25:09;;;;;;;58.60;28.10;;;2.90;99.90;;;;;;5077818;28;20390;-93
2022/04/15 04:27:36;;;;;;;52.05;25.00;;;3.00;99.90;;;;;;5093306;28;20814;-92
2022/04/15 20:03:01;;;;;;;213.32;96.57;;;10.20;69.90;;;;;;5091829;28;20035;-84
2022/04/15 20:05:27;;;;;;;146.65;65.60;;;10.20;70.50;;;;;;5073177;28;20463;-85
2022/04/15 20:07:53;;;;;;;158.35;65.05;;;10.30;70.70;;;;;;5073129;28;20485;-84
2022/04/15 20:10:22;;;;;;;121.65;48.70;;;10.50;70.50;;;;;;5091350;28;20028;-86
2022/04/15 20:12:49;;;;;;;1242.07;587.58;;;10.70;70.00;;;;;;5091216;28;20024;-85
2022/04/15 20:15:15;;;;;;;636.30;335.48;;;10.80;69.50;;;;;;5073085;28;20070;-84
2022/04/15 20:17:41;;;;;;;345.48;156.10;;;10.90;69.40;;;;;;5091115;28;20016;-90
2022/04/15 20:20:08;;;;;;;582.03;256.73;;;11.00;69.30;;;;;;5073497;28;20028;-85
2022/04/15 20:22:34;;;;;;;510.25;240.38;;;11.20;68.50;;;;;;5090833;28;20020;-84
2022/04/15 20:25:01;;;;;;;340.08;133.98;;;11.30;67.90;;;;;;5072364;28;20025;-84
2022/04/15 20:27:29;;;;;;;409.38;159.05;;;11.30;67.80;;;;;;5089437;28;20388;-84
2022/04/15 20:29:55;;;;;;;271.33;85.45;;;11.40;67.40;;;;;;5071487;28;20021;-85
2022/04/15 20:32:21;;;;;;;112.13;48.08;;;11.50;66.90;;;;;;5071830;28;20051;-85
2022/04/15 20:34:48;;;;;;;146.07;68.88;;;11.60;66.30;;;;;;5089166;28;20063;-85
2022/04/15 20:37:14;;;;;;;287.75;123.68;;;11.70;65.80;;;;;;5068768;28;20054;-84
2022/04/15 20:39:40;;;;;;;494.90;231.73;;;11.80;65.80;;;;;;5071155;28;20032;-86
2022/04/15 20:42:06;;;;;;;138.32;60.22;;;11.80;65.60;;;;;;5071157;28;20027;-85
2022/04/15 20:44:35;;;;;;;198.40;95.97;;;11.80;65.30;;;;;;5071341;28;20073;-85
2022/04/15 20:47:01;;;;;;;57.33;28.65;;;12.00;64.90;;;;;;5071705;28;20021;-86
2022/04/15 20:52:11;;;;;;;109.68;55.70;;;12.10;64.50;;;;;;5089274;28;20434;-85
2022/04/15 20:54:38;;;;;;;110.05;40.05;;;12.10;64.50;;;;;;5089910;28;20020;-85
2022/04/15 20:57:05;;;;;;;103.15;51.90;;;12.10;64.60;;;;;;5071186;28;20020;-84
2022/04/15 20:59:31;;;;;;;58.38;34.13;;;12.10;64.70;;;;;;5089695;28;20109;-86
2022/04/15 21:01:57;;;;;;;145.43;89.13;;;12.10;64.60;;;;;;5069059;28;20528;-85
2022/04/15 21:04:23;;;;;;;63.35;33.95;;;12.00;64.90;;;;;;5071402;28;20016;-85
2022/04/15 21:06:49;;;;;;;31.30;16.67;;;12.00;65.30;;;;;;5089700;28;20120;-85
2022/04/15 21:09:15;;;;;;;35.55;16.60;;;11.90;65.50;;;;;;5089478;28;20475;-85
2022/04/15 21:11:41;;;;;;;40.42;29.23;;;11.90;65.90;;;;;;5076023;28;20016;-84
2022/04/15 21:14:08;;;;;;;37.25;20.27;;;11.80;66.10;;;;;;5058034;28;20391;-84
2022/04/15 21:16:34;;;;;;;64.38;30.77;;;11.80;66.70;;;;;;5058259;28;20074;-85
2022/04/15 21:19:00;;;;;;;71.85;31.52;;;11.80;66.80;;;;;;5057873;28;20021;-85
2022/04/15 21:21:26;;;;;;;37.55;17.95;;;11.70;67.20;;;;;;5076202;28;20372;-85
2022/04/15 21:23:53;;;;;;;85.32;34.00;;;11.70;67.60;;;;;;5075897;28;20062;-85
2022/04/15 21:26:31;;;;;;;24.25;9.07;;;11.60;67.80;;;;;;5075916;28;20016;-86
2022/04/15 21:29:08;;;;;;;26.83;12.57;;;11.70;68.20;;;;;;5058227;28;20024;-86
2022/04/15 21:31:37;;;;;;;32.97;15.00;;;11.60;68.80;;;;;;5058111;28;20028;-86
2022/04/15 21:34:07;;;;;;;21.45;10.77;;;11.60;69.10;;;;;;5057936;28;20020;-85
2022/04/15 21:36:34;;;;;;;16.92;7.82;;;11.60;69.50;;;;;;5058061;28;20436;-85
2022/04/15 21:38:59;;;;;;;9.45;5.38;;;11.50;70.10;;;;;;5075539;28;20028;-86
2022/04/15 21:41:25;;;;;;;10.55;6.05;;;11.50;70.70;;;;;;5075835;28;20380;-85
2022/04/15 21:43:53;;;;;;;9.25;5.40;;;11.40;71.10;;;;;;5058388;28;20036;-89
2022/04/15 21:46:22;;;;;;;10.38;5.25;;;11.40;71.50;;;;;;5058255;28;20027;-85
2022/04/15 21:48:49;;;;;;;10.13;6.10;;;11.30;71.90;;;;;;5076195;28;20032;-85
2022/04/15 21:53:59;;;;;;;8.93;5.53;;;11.20;73.40;;;;;;5076084;28;20035;-86
2022/04/15 21:56:26;;;;;;;12.05;6.28;;;11.20;74.70;;;;;;5058106;28;20024;-85
2022/04/15 21:58:52;;;;;;;17.13;6.38;;;11.10;75.20;;;;;;5057770;28;20051;-87
2022/04/15 22:01:18;;;;;;;12.20;5.90;;;11.10;76.20;;;;;;5076384;28;20052;-87
2022/04/15 22:03:44;;;;;;;9.00;6.20;;;11.10;77.20;;;;;;5058173;28;20048;-87
2022/04/15 22:06:10;;;;;;;11.32;6.03;;;11.10;78.00;;;;;;5058006;28;20024;-89
2022/04/15 22:08:36;;;;;;;11.68;5.85;;;11.00;78.40;;;;;;5058025;28;20035;-86
2022/04/15 22:11:04;;;;;;;11.90;6.68;;;11.00;79.10;;;;;;5057936;28;20032;-85
2022/04/15 22:13:30;;;;;;;10.05;6.43;;;10.90;80.20;;;;;;5057915;28;20028;-86
2022/04/15 22:15:59;;;;;;;10.00;5.82;;;10.80;80.80;;;;;;5057943;28;20052;-86
2022/04/15 22:18:26;;;;;;;12.18;6.90;;;10.80;81.60;;;;;;5057866;28;20391;-86
2022/04/15 22:20:52;;;;;;;13.05;7.07;;;10.80;81.70;;;;;;5057828;28;20059;-87
2022/04/15 22:23:18;;;;;;;13.90;6.40;;;10.80;82.50;;;;;;5056790;28;20059;-88
2022/04/15 22:25:44;;;;;;;10.63;6.88;;;10.70;83.20;;;;;;5075583;28;20048;-86
2022/04/15 22:28:10;;;;;;;12.30;6.00;;;10.70;83.80;;;;;;5057724;28;20023;-85
2022/04/15 22:30:36;;;;;;;12.00;6.22;;;10.70;84.80;;;;;;5057509;28;20087;-85
2022/04/15 22:33:02;;;;;;;8.23;5.95;;;10.70;85.00;;;;;;5057649;28;20036;-88
2022/04/15 22:35:31;;;;;;;10.70;5.47;;;10.60;85.70;;;;;;5057555;28;20109;-86
2022/04/15 22:37:57;;;;;;;10.93;5.80;;;10.60;86.10;;;;;;5057396;28;20502;-87
2022/04/15 22:40:24;;;;;;;9.38;5.72;;;10.60;86.70;;;;;;5075260;28;20080;-85
2022/04/15 22:42:50;;;;;;;13.90;6.70;;;10.60;87.00;;;;;;5057317;28;20086;-85
2022/04/15 22:45:16;;;;;;;13.57;5.80;;;10.60;87.40;;;;;;5057496;28;20049;-87
2022/04/15 22:47:50;;;;;;;10.73;6.35;;;10.60;88.20;;;;;;5057392;28;20452;-86
2022/04/15 22:50:17;;;;;;;10.60;6.45;;;10.60;88.60;;;;;;5057577;28;20043;-86
2022/04/15 22:52:43;;;;;;;9.45;5.45;;;10.60;89.30;;;;;;5075074;28;20051;-85
2022/04/15 22:57:58;;;;;;;6.15;5.18;;;10.50;90.20;;;;;;5074870;28;20059;-86
2022/04/15 23:00:28;;;;;;;10.40;6.13;;;10.50;90.40;;;;;;5057005;28;20043;-86
2022/04/15 23:02:59;;;;;;;11.90;6.30;;;10.40;90.60;;;;;;5074862;28;20024;-86
2022/04/15 23:05:25;;;;;;;;;;;10.40;90.80;;;;;;5057259;28;20430;-86
2022/04/15 23:07:53;;;;;;;10.27;5.80;;;10.30;91.00;;;;;;5056979;28;19958;-85
2022/04/15 23:10:18;;;;;;;9.80;6.45;;;10.30;91.50;;;;;;5056842;28;20024;-85
2022/04/15 23:12:44;;;;;;;9.63;5.93;;;10.20;91.80;;;;;;5056908;28;20387;-85
2022/04/15 23:15:11;;;;;;;10.93;6.70;;;10.20;92.10;;;;;;5074355;28;20078;-86
2022/04/15 23:17:39;;;;;;;7.55;5.88;;;10.20;92.40;;;;;;5074457;28;20379;-85
2022/04/15 23:20:07;;;;;;;7.82;5.63;;;10.10;92.50;;;;;;5056927;28;20447;-86
2022/04/15 23:22:37;;;;;;;9.38;6.13;;;10.10;92.80;;;;;;5056709;28;20052;-85
2022/04/15 23:25:04;;;;;;;9.43;6.20;;;10.10;93.10;;;;;;5074471;28;20027;-85
2022/04/15 23:27:31;;;;;;;10.05;6.47;;;10.00;93.30;;;;;;5056737;28;20031;-85
2022/04/15 23:29:58;;;;;;;10.35;7.00;;;10.00;93.60;;;;;;5074369;28;20024;-85
2022/04/15 23:32:24;;;;;;;9.65;6.68;;;10.00;93.90;;;;;;5056570;28;20047;-85
2022/04/15 23:34:51;;;;;;;11.82;7.00;;;9.90;94.30;;;;;;5056246;28;20419;-86
2022/04/15 23:37:17;;;;;;;8.80;6.10;;;9.90;94.70;;;;;;5056481;28;20024;-86
2022/04/15 23:39:43;;;;;;;9.80;6.65;;;9.90;94.90;;;;;;5056276;28;20505;-85
2022/04/15 23:42:10;;;;;;;10.40;6.85;;;9.80;95.20;;;;;;5056276;28;20429;-86
2022/04/15 23:44:36;;;;;;;9.63;6.10;;;9.70;95.40;;;;;;5056431;28;20020;-86
2022/04/15 23:49:48;;;;;;;11.68;6.85;;;9.60;96.00;;;;;;5074558;28;20039;-85
2022/04/15 23:52:14;;;;;;;12.70;7.05;;;9.60;96.30;;;;;;5056302;28;20029;-85
2022/04/15 23:54:40;;;;;;;10.18;6.63;;;9.60;96.60;;;;;;5056473;28;20039;-86
2022/04/15 23:57:07;;;;;;;14.10;7.25;;;9.60;97.00;;;;;;5056379;28;20032;-86
2022/04/15 23:59:33;;;;;;;9.18;6.75;;;9.60;97.10;;;;;;5056083;28;20537;-87
